sensor_id;sensor_type;location;lat;lon;timestamp;P1;durP1;ratioP1;P2;durP2;ratioP2
40052;SDS011;25758;48.200;16.338;2024-03-08T01:32:36;44.53;;;25.55;;
40052;SDS011;25758;48.200;16.338;2024-03-08T01:35:02;50.13;;;25.55;;
40052;SDS011;25758;48.200;16.338;2024-03-08T01:37:28;50.30;;;26.65;;
40052;SDS011;25758;48.200;16.338;2024-03-08T01:39:54;51.58;;;26.77;;
40052;SDS011;25758;48.200;16.338;2024-03-08T01:42:20;52.92;;;26.75;;
40052;SDS011;25758;48.200;16.338;2024-03-08T01:44:47;52.30;;;26.25;;
40052;SDS011;25758;48.200;16.338;2024-03-08T01:47:12;44.50;;;26.05;;
40052;SDS011;25758;48.200;16.338;2024-03-08T01:49:38;53.30;;;27.02;;
40052;SDS011;25758;48.200;16.338;2024-03-08T01:52:04;48.05;;;25.60;;
40052;SDS011;25758;48.200;16.338;2024-03-08T01:54:30;48.28;;;25.65;;
40052;SDS011;25758;48.200;16.338;2024-03-08T01:56:56;49.53;;;26.25;;
40052;SDS011;25758;48.200;16.338;2024-03-08T01:59:23;52.67;;;27.65;;
40052;SDS011;25758;48.200;16.338;2024-03-08T02:01:49;48.80;;;25.38;;
40052;SDS011;25758;48.200;16.338;2024-03-08T02:04:16;53.72;;;28.05;;
40052;SDS011;25758;48.200;16.338;2024-03-08T02:06:42;44.53;;;23.98;;
40052;SDS011;25758;48.200;16.338;2024-03-08T02:09:08;45.92;;;25.88;;
40052;SDS011;25758;48.200;16.338;2024-03-08T02:11:35;46.88;;;25.40;;
40052;SDS011;25758;48.200;16.338;2024-03-08T02:14:01;47.67;;;26.50;;
40052;SDS011;25758;48.200;16.338;2024-03-08T02:16:27;47.80;;;25.33;;
40052;SDS011;25758;48.200;16.338;2024-03-08T02:18:52;48.97;;;26.85;;
40052;SDS011;25758;48.200;16.338;2024-03-08T02:21:18;42.90;;;24.17;;
40052;SDS011;25758;48.200;16.338;2024-03-08T02:23:44;46.40;;;26.55;;
40052;SDS011;25758;48.200;16.338;2024-03-08T02:26:09;44.33;;;24.60;;
40052;SDS011;25758;48.200;16.338;2024-03-08T02:28:36;50.08;;;26.50;;
40052;SDS011;25758;48.200;16.338;2024-03-08T02:31:02;46.70;;;24.92;;
40052;SDS011;25758;48.200;16.338;2024-03-08T02:33:33;47.85;;;25.23;;
40052;SDS011;25758;48.200;16.338;2024-03-08T02:35:59;49.78;;;27.27;;
40052;SDS011;25758;48.200;16.338;2024-03-08T02:38:25;49.55;;;25.67;;
40052;SDS011;25758;48.200;16.338;2024-03-08T02:40:51;45.35;;;24.88;;
40052;SDS011;25758;48.200;16.338;2024-03-08T02:43:18;43.25;;;24.83;;
40052;SDS011;25758;48.200;16.338;2024-03-08T02:45:45;46.58;;;25.67;;
40052;SDS011;25758;48.200;16.338;2024-03-08T02:48:11;51.45;;;27.17;;
40052;SDS011;25758;48.200;16.338;2024-03-08T02:50:38;49.05;;;25.77;;
40052;SDS011;25758;48.200;16.338;2024-03-08T02:53:05;45.08;;;25.40;;
40052;SDS011;25758;48.200;16.338;2024-03-08T02:55:32;48.08;;;26.30;;
40052;SDS011;25758;48.200;16.338;2024-03-08T02:58:00;45.80;;;25.85;;
40052;SDS011;25758;48.200;16.338;2024-03-08T03:00:28;52.10;;;25.77;;
40052;SDS011;25758;48.200;16.338;2024-03-08T03:02:55;47.42;;;26.08;;
40052;SDS011;25758;48.200;16.338;2024-03-08T03:05:21;47.65;;;26.25;;
40052;SDS011;25758;48.200;16.338;2024-03-08T03:07:48;48.67;;;26.40;;
40052;SDS011;25758;48.200;16.338;2024-03-08T03:10:14;50.70;;;26.02;;
40052;SDS011;25758;48.200;16.338;2024-03-08T03:12:43;49.15;;;24.27;;
40052;SDS011;25758;48.200;16.338;2024-03-08T03:15:10;45.47;;;25.25;;
40052;SDS011;25758;48.200;16.338;2024-03-08T03:17:37;46.05;;;25.90;;
40052;SDS011;25758;48.200;16.338;2024-03-08T03:20:06;51.75;;;26.17;;
40052;SDS011;25758;48.200;16.338;2024-03-08T03:22:38;49.95;;;26.45;;
40052;SDS011;25758;48.200;16.338;2024-03-08T03:25:06;54.45;;;26.50;;
40052;SDS011;25758;48.200;16.338;2024-03-08T03:27:34;52.65;;;27.92;;
40052;SDS011;25758;48.200;16.338;2024-03-08T03:30:01;47.17;;;25.65;;
40052;SDS011;25758;48.200;16.338;2024-03-08T03:32:45;46.20;;;26.80;;
40052;SDS011;25758;48.200;16.338;2024-03-08T03:35:12;51.10;;;27.08;;
40052;SDS011;25758;48.200;16.338;2024-03-08T03:37:41;50.78;;;26.08;;
40052;SDS011;25758;48.200;16.338;2024-03-08T03:40:10;46.72;;;25.52;;
40052;SDS011;25758;48.200;16.338;2024-03-08T03:42:36;48.65;;;27.33;;
40052;SDS011;25758;48.200;16.338;2024-03-08T03:45:04;45.88;;;25.30;;
40052;SDS011;25758;48.200;16.338;2024-03-08T03:47:31;52.85;;;27.23;;
40052;SDS011;25758;48.200;16.338;2024-03-08T03:49:57;46.15;;;26.45;;
40052;SDS011;25758;48.200;16.338;2024-03-08T03:52:27;42.00;;;24.75;;
40052;SDS011;25758;48.200;16.338;2024-03-08T03:54:53;50.67;;;25.33;;
40052;SDS011;25758;48.200;16.338;2024-03-08T03:57:18;46.92;;;26.27;;
40052;SDS011;25758;48.200;16.338;2024-03-08T03:59:45;52.30;;;25.45;;
40052;SDS011;25758;48.200;16.338;2024-03-08T04:02:12;48.97;;;25.35;;
40052;SDS011;25758;48.200;16.338;2024-03-08T04:04:38;48.40;;;26.30;;
40052;SDS011;25758;48.200;16.338;2024-03-08T04:07:04;51.25;;;27.15;;
40052;SDS011;25758;48.200;16.338;2024-03-08T04:09:30;46.80;;;25.52;;
40052;SDS011;25758;48.200;16.338;2024-03-08T04:11:56;48.42;;;25.77;;
40052;SDS011;25758;48.200;16.338;2024-03-08T04:14:22;49.35;;;26.80;;
40052;SDS011;25758;48.200;16.338;2024-03-08T04:16:48;50.65;;;26.40;;
40052;SDS011;25758;48.200;16.338;2024-03-08T04:19:14;50.92;;;26.38;;
40052;SDS011;25758;48.200;16.338;2024-03-08T04:21:40;48.20;;;26.90;;
40052;SDS011;25758;48.200;16.338;2024-03-08T04:24:07;50.20;;;27.17;;
40052;SDS011;25758;48.200;16.338;2024-03-08T04:26:34;48.83;;;26.85;;
40052;SDS011;25758;48.200;16.338;2024-03-08T04:29:00;45.22;;;25.05;;
40052;SDS011;25758;48.200;16.338;2024-03-08T04:31:26;48.15;;;25.15;;
40052;SDS011;25758;48.200;16.338;2024-03-08T04:33:52;46.83;;;25.58;;
40052;SDS011;25758;48.200;16.338;2024-03-08T04:36:18;51.58;;;26.05;;
40052;SDS011;25758;48.200;16.338;2024-03-08T04:38:44;48.17;;;27.08;;
40052;SDS011;25758;48.200;16.338;2024-03-08T04:41:10;47.65;;;25.20;;
40052;SDS011;25758;48.200;16.338;2024-03-08T04:43:37;49.45;;;24.80;;
40052;SDS011;25758;48.200;16.338;2024-03-08T04:46:03;51.33;;;26.17;;
40052;SDS011;25758;48.200;16.338;2024-03-08T04:48:28;46.60;;;26.50;;
40052;SDS011;25758;48.200;16.338;2024-03-08T04:50:54;48.20;;;25.90;;
40052;SDS011;25758;48.200;16.338;2024-03-08T04:53:20;49.60;;;27.27;;
40052;SDS011;25758;48.200;16.338;2024-03-08T04:55:46;48.88;;;24.90;;
40052;SDS011;25758;48.200;16.338;2024-03-08T04:58:12;45.58;;;24.95;;
40052;SDS011;25758;48.200;16.338;2024-03-08T05:00:38;50.33;;;26.70;;
40052;SDS011;25758;48.200;16.338;2024-03-08T05:03:03;51.00;;;25.88;;
40052;SDS011;25758;48.200;16.338;2024-03-08T05:05:29;61.70;;;27.70;;
40052;SDS011;25758;48.200;16.338;2024-03-08T05:07:55;47.97;;;25.38;;
40052;SDS011;25758;48.200;16.338;2024-03-08T05:10:21;51.58;;;26.67;;
40052;SDS011;25758;48.200;16.338;2024-03-08T05:12:47;53.22;;;26.40;;
40052;SDS011;25758;48.200;16.338;2024-03-08T05:15:12;49.42;;;27.60;;
40052;SDS011;25758;48.200;16.338;2024-03-08T05:17:38;50.20;;;26.90;;
40052;SDS011;25758;48.200;16.338;2024-03-08T05:20:05;56.97;;;28.10;;
40052;SDS011;25758;48.200;16.338;2024-03-08T05:22:33;52.80;;;27.27;;
40052;SDS011;25758;48.200;16.338;2024-03-08T05:24:59;51.92;;;28.00;;
40052;SDS011;25758;48.200;16.338;2024-03-08T05:27:25;49.78;;;27.52;;
40052;SDS011;25758;48.200;16.338;2024-03-08T05:29:53;50.55;;;26.55;;
40052;SDS011;25758;48.200;16.338;2024-03-08T05:32:19;52.85;;;27.02;;
40052;SDS011;25758;48.200;16.338;2024-03-08T05:34:45;53.28;;;27.17;;
40052;SDS011;25758;48.200;16.338;2024-03-08T05:37:11;53.58;;;28.08;;
40052;SDS011;25758;48.200;16.338;2024-03-08T05:39:37;52.10;;;27.38;;
40052;SDS011;25758;48.200;16.338;2024-03-08T05:42:03;52.47;;;28.52;;
40052;SDS011;25758;48.200;16.338;2024-03-08T05:44:29;51.33;;;27.50;;
40052;SDS011;25758;48.200;16.338;2024-03-08T05:46:55;54.53;;;28.27;;
40052;SDS011;25758;48.200;16.338;2024-03-08T05:49:21;49.65;;;27.42;;
40052;SDS011;25758;48.200;16.338;2024-03-08T05:51:47;55.83;;;28.42;;
40052;SDS011;25758;48.200;16.338;2024-03-08T05:54:13;53.42;;;27.45;;
40052;SDS011;25758;48.200;16.338;2024-03-08T05:56:39;51.80;;;28.63;;
40052;SDS011;25758;48.200;16.338;2024-03-08T05:59:08;52.70;;;28.48;;
40052;SDS011;25758;48.200;16.338;2024-03-08T06:01:34;57.13;;;27.85;;
40052;SDS011;25758;48.200;16.338;2024-03-08T06:04:06;50.90;;;28.48;;
40052;SDS011;25758;48.200;16.338;2024-03-08T06:06:32;52.72;;;29.13;;
40052;SDS011;25758;48.200;16.338;2024-03-08T06:08:58;47.80;;;28.13;;
40052;SDS011;25758;48.200;16.338;2024-03-08T06:11:25;48.13;;;28.23;;
40052;SDS011;25758;48.200;16.338;2024-03-08T06:13:55;53.10;;;26.58;;
40052;SDS011;25758;48.200;16.338;2024-03-08T06:16:31;58.85;;;29.30;;
40052;SDS011;25758;48.200;16.338;2024-03-08T06:18:58;55.30;;;27.08;;
40052;SDS011;25758;48.200;16.338;2024-03-08T06:21:27;51.92;;;28.50;;
40052;SDS011;25758;48.200;16.338;2024-03-08T06:23:53;52.92;;;28.17;;
40052;SDS011;25758;48.200;16.338;2024-03-08T06:26:25;50.10;;;26.23;;
40052;SDS011;25758;48.200;16.338;2024-03-08T06:28:53;53.03;;;27.92;;
40052;SDS011;25758;48.200;16.338;2024-03-08T06:31:19;51.30;;;28.35;;
40052;SDS011;25758;48.200;16.338;2024-03-08T06:33:45;52.72;;;28.02;;
40052;SDS011;25758;48.200;16.338;2024-03-08T06:36:11;52.78;;;27.95;;
40052;SDS011;25758;48.200;16.338;2024-03-08T06:38:37;47.88;;;26.17;;
40052;SDS011;25758;48.200;16.338;2024-03-08T06:41:07;55.45;;;28.58;;
40052;SDS011;25758;48.200;16.338;2024-03-08T06:43:34;50.08;;;27.55;;
40052;SDS011;25758;48.200;16.338;2024-03-08T06:46:00;53.45;;;26.70;;
40052;SDS011;25758;48.200;16.338;2024-03-08T06:48:26;56.40;;;27.63;;
40052;SDS011;25758;48.200;16.338;2024-03-08T06:50:51;51.35;;;28.02;;
40052;SDS011;25758;48.200;16.338;2024-03-08T06:53:17;53.25;;;25.33;;
40052;SDS011;25758;48.200;16.338;2024-03-08T06:55:44;49.80;;;25.63;;
40052;SDS011;25758;48.200;16.338;2024-03-08T06:58:10;49.53;;;25.38;;
40052;SDS011;25758;48.200;16.338;2024-03-08T07:00:36;47.50;;;26.73;;
40052;SDS011;25758;48.200;16.338;2024-03-08T07:03:02;53.45;;;27.00;;
40052;SDS011;25758;48.200;16.338;2024-03-08T07:05:29;48.00;;;25.58;;
40052;SDS011;25758;48.200;16.338;2024-03-08T07:07:55;53.83;;;27.90;;
40052;SDS011;25758;48.200;16.338;2024-03-08T07:10:21;52.63;;;27.42;;
40052;SDS011;25758;48.200;16.338;2024-03-08T07:12:49;48.80;;;26.52;;
40052;SDS011;25758;48.200;16.338;2024-03-08T07:15:15;50.67;;;26.08;;
40052;SDS011;25758;48.200;16.338;2024-03-08T07:17:44;57.83;;;28.60;;
40052;SDS011;25758;48.200;16.338;2024-03-08T07:20:10;56.10;;;28.95;;
40052;SDS011;25758;48.200;16.338;2024-03-08T07:22:38;56.35;;;27.70;;
40052;SDS011;25758;48.200;16.338;2024-03-08T07:25:07;47.85;;;26.50;;
40052;SDS011;25758;48.200;16.338;2024-03-08T07:27:33;50.42;;;26.83;;
40052;SDS011;25758;48.200;16.338;2024-03-08T07:30:01;56.03;;;26.92;;
40052;SDS011;25758;48.200;16.338;2024-03-08T07:32:27;56.20;;;28.33;;
40052;SDS011;25758;48.200;16.338;2024-03-08T07:34:55;50.38;;;27.30;;
40052;SDS011;25758;48.200;16.338;2024-03-08T07:37:21;50.78;;;27.27;;
40052;SDS011;25758;48.200;16.338;2024-03-08T07:39:48;54.55;;;29.17;;
40052;SDS011;25758;48.200;16.338;2024-03-08T07:42:15;55.63;;;28.52;;
40052;SDS011;25758;48.200;16.338;2024-03-08T07:44:41;56.97;;;31.63;;
40052;SDS011;25758;48.200;16.338;2024-03-08T07:47:08;56.28;;;28.77;;
40052;SDS011;25758;48.200;16.338;2024-03-08T07:49:35;59.63;;;29.88;;
40052;SDS011;25758;48.200;16.338;2024-03-08T07:52:02;58.55;;;29.08;;
40052;SDS011;25758;48.200;16.338;2024-03-08T07:54:29;59.35;;;29.92;;
40052;SDS011;25758;48.200;16.338;2024-03-08T07:56:55;55.17;;;29.85;;
40052;SDS011;25758;48.200;16.338;2024-03-08T07:59:21;55.80;;;29.73;;
40052;SDS011;25758;48.200;16.338;2024-03-08T08:01:47;60.92;;;31.10;;
40052;SDS011;25758;48.200;16.338;2024-03-08T08:04:13;59.53;;;28.13;;
40052;SDS011;25758;48.200;16.338;2024-03-08T08:06:39;59.80;;;29.40;;
40052;SDS011;25758;48.200;16.338;2024-03-08T08:09:08;62.30;;;28.85;;
40052;SDS011;25758;48.200;16.338;2024-03-08T08:11:48;60.60;;;30.33;;
40052;SDS011;25758;48.200;16.338;2024-03-08T08:14:14;58.40;;;28.52;;
40052;SDS011;25758;48.200;16.338;2024-03-08T08:16:41;63.25;;;30.13;;
40052;SDS011;25758;48.200;16.338;2024-03-08T08:19:07;71.10;;;30.92;;
40052;SDS011;25758;48.200;16.338;2024-03-08T08:21:34;65.20;;;29.50;;
40052;SDS011;25758;48.200;16.338;2024-03-08T08:24:02;64.82;;;30.00;;
40052;SDS011;25758;48.200;16.338;2024-03-08T08:26:31;65.95;;;28.45;;
40052;SDS011;25758;48.200;16.338;2024-03-08T08:28:57;68.35;;;29.42;;
40052;SDS011;25758;48.200;16.338;2024-03-08T08:31:24;61.70;;;28.33;;
40052;SDS011;25758;48.200;16.338;2024-03-08T08:33:51;59.85;;;30.67;;
40052;SDS011;25758;48.200;16.338;2024-03-08T08:36:23;61.25;;;29.10;;
40052;SDS011;25758;48.200;16.338;2024-03-08T08:38:51;62.65;;;29.17;;
40052;SDS011;25758;48.200;16.338;2024-03-08T08:41:23;57.40;;;28.02;;
40052;SDS011;25758;48.200;16.338;2024-03-08T08:43:48;70.35;;;33.08;;
40052;SDS011;25758;48.200;16.338;2024-03-08T08:46:18;79.03;;;36.70;;
40052;SDS011;25758;48.200;16.338;2024-03-08T08:48:44;66.68;;;30.50;;
40052;SDS011;25758;48.200;16.338;2024-03-08T08:51:12;64.90;;;31.38;;
40052;SDS011;25758;48.200;16.338;2024-03-08T08:53:41;74.78;;;32.25;;
40052;SDS011;25758;48.200;16.338;2024-03-08T08:58:41;65.85;;;30.98;;
40052;SDS011;25758;48.200;16.338;2024-03-08T09:01:08;66.30;;;33.03;;
40052;SDS011;25758;48.200;16.338;2024-03-08T09:03:35;72.97;;;30.88;;
40052;SDS011;25758;48.200;16.338;2024-03-08T09:06:02;75.60;;;33.38;;
40052;SDS011;25758;48.200;16.338;2024-03-08T09:08:29;77.25;;;32.28;;
40052;SDS011;25758;48.200;16.338;2024-03-08T09:10:55;80.80;;;34.38;;
40052;SDS011;25758;48.200;16.338;2024-03-08T09:13:21;66.50;;;29.63;;
40052;SDS011;25758;48.200;16.338;2024-03-08T09:15:47;76.03;;;34.13;;
40052;SDS011;25758;48.200;16.338;2024-03-08T09:18:14;75.50;;;32.92;;
40052;SDS011;25758;48.200;16.338;2024-03-08T09:20:39;73.43;;;31.92;;
40052;SDS011;25758;48.200;16.338;2024-03-08T09:23:06;74.13;;;30.50;;
40052;SDS011;25758;48.200;16.338;2024-03-08T09:25:33;77.13;;;31.35;;
40052;SDS011;25758;48.200;16.338;2024-03-08T09:27:59;72.03;;;30.85;;
40052;SDS011;25758;48.200;16.338;2024-03-08T09:30:25;72.63;;;31.83;;
40052;SDS011;25758;48.200;16.338;2024-03-08T09:32:50;77.80;;;32.25;;
40052;SDS011;25758;48.200;16.338;2024-03-08T09:35:16;72.57;;;31.00;;
40052;SDS011;25758;48.200;16.338;2024-03-08T09:37:42;81.28;;;32.78;;
40052;SDS011;25758;48.200;16.338;2024-03-08T09:40:07;78.47;;;31.88;;
40052;SDS011;25758;48.200;16.338;2024-03-08T09:42:40;77.68;;;31.98;;
40052;SDS011;25758;48.200;16.338;2024-03-08T09:45:10;68.63;;;31.45;;
40052;SDS011;25758;48.200;16.338;2024-03-08T09:47:44;71.32;;;29.65;;
40052;SDS011;25758;48.200;16.338;2024-03-08T09:50:10;70.85;;;31.50;;
40052;SDS011;25758;48.200;16.338;2024-03-08T09:52:41;64.65;;;29.23;;
40052;SDS011;25758;48.200;16.338;2024-03-08T09:55:09;82.32;;;31.58;;
40052;SDS011;25758;48.200;16.338;2024-03-08T09:57:41;70.05;;;30.48;;
40052;SDS011;25758;48.200;16.338;2024-03-08T10:00:27;69.22;;;30.48;;
40052;SDS011;25758;48.200;16.338;2024-03-08T10:02:53;69.45;;;28.95;;
40052;SDS011;25758;48.200;16.338;2024-03-08T10:05:18;64.10;;;28.20;;
40052;SDS011;25758;48.200;16.338;2024-03-08T10:07:45;67.97;;;27.80;;
40052;SDS011;25758;48.200;16.338;2024-03-08T10:10:11;71.32;;;29.92;;
40052;SDS011;25758;48.200;16.338;2024-03-08T10:12:37;66.13;;;23.83;;
40052;SDS011;25758;48.200;16.338;2024-03-08T10:15:05;64.15;;;27.15;;
40052;SDS011;25758;48.200;16.338;2024-03-08T10:17:34;58.83;;;24.85;;
40052;SDS011;25758;48.200;16.338;2024-03-08T10:20:00;65.72;;;26.48;;
40052;SDS011;25758;48.200;16.338;2024-03-08T10:22:26;56.58;;;24.60;;
40052;SDS011;25758;48.200;16.338;2024-03-08T10:24:54;59.00;;;23.85;;
40052;SDS011;25758;48.200;16.338;2024-03-08T10:27:20;64.75;;;24.60;;
40052;SDS011;25758;48.200;16.338;2024-03-08T10:29:46;52.28;;;24.35;;
40052;SDS011;25758;48.200;16.338;2024-03-08T10:32:13;52.50;;;25.30;;
40052;SDS011;25758;48.200;16.338;2024-03-08T10:34:39;56.22;;;23.58;;
40052;SDS011;25758;48.200;16.338;2024-03-08T10:37:07;60.55;;;23.92;;
40052;SDS011;25758;48.200;16.338;2024-03-08T10:39:37;53.15;;;23.25;;
40052;SDS011;25758;48.200;16.338;2024-03-08T10:42:06;44.35;;;21.42;;
40052;SDS011;25758;48.200;16.338;2024-03-08T10:44:57;45.47;;;22.17;;
40052;SDS011;25758;48.200;16.338;2024-03-08T10:47:37;45.05;;;21.48;;
40052;SDS011;25758;48.200;16.338;2024-03-08T10:52:38;38.72;;;19.67;;
40052;SDS011;25758;48.200;16.338;2024-03-08T10:55:04;40.38;;;18.17;;
40052;SDS011;25758;48.200;16.338;2024-03-08T10:57:37;39.95;;;19.17;;
40052;SDS011;25758;48.200;16.338;2024-03-08T11:00:04;45.65;;;19.33;;
40052;SDS011;25758;48.200;16.338;2024-03-08T11:02:36;37.33;;;17.90;;
40052;SDS011;25758;48.200;16.338;2024-03-08T11:05:03;36.63;;;17.70;;
40052;SDS011;25758;48.200;16.338;2024-03-08T11:07:32;37.08;;;17.67;;
40052;SDS011;25758;48.200;16.338;2024-03-08T11:09:59;35.75;;;17.05;;
40052;SDS011;25758;48.200;16.338;2024-03-08T11:12:30;32.67;;;16.88;;
40052;SDS011;25758;48.200;16.338;2024-03-08T11:15:10;30.80;;;14.88;;
40052;SDS011;25758;48.200;16.338;2024-03-08T11:20:08;33.70;;;14.95;;
40052;SDS011;25758;48.200;16.338;2024-03-08T11:22:40;30.63;;;14.20;;
40052;SDS011;25758;48.200;16.338;2024-03-08T11:25:13;28.58;;;13.82;;
40052;SDS011;25758;48.200;16.338;2024-03-08T11:28:09;223.55;;;109.07;;
40052;SDS011;25758;48.200;16.338;2024-03-08T11:30:42;44.85;;;20.75;;
40052;SDS011;25758;48.200;16.338;2024-03-08T11:33:16;18.05;;;11.10;;
40052;SDS011;25758;48.200;16.338;2024-03-08T11:35:42;19.23;;;10.82;;
40052;SDS011;25758;48.200;16.338;2024-03-08T11:38:10;18.70;;;10.05;;
40052;SDS011;25758;48.200;16.338;2024-03-08T11:40:38;18.05;;;9.88;;
40052;SDS011;25758;48.200;16.338;2024-03-08T11:43:05;15.32;;;7.57;;
40052;SDS011;25758;48.200;16.338;2024-03-08T11:45:33;18.65;;;8.65;;
40052;SDS011;25758;48.200;16.338;2024-03-08T11:48:01;16.83;;;8.02;;
40052;SDS011;25758;48.200;16.338;2024-03-08T11:50:30;14.63;;;8.45;;
40052;SDS011;25758;48.200;16.338;2024-03-08T11:53:01;17.65;;;9.00;;
40052;SDS011;25758;48.200;16.338;2024-03-08T11:55:31;22.25;;;10.07;;
40052;SDS011;25758;48.200;16.338;2024-03-08T11:58:03;20.17;;;11.05;;
40052;SDS011;25758;48.200;16.338;2024-03-08T12:00:30;23.77;;;11.40;;
40052;SDS011;25758;48.200;16.338;2024-03-08T12:03:06;22.73;;;10.25;;
40052;SDS011;25758;48.200;16.338;2024-03-08T12:05:34;19.92;;;10.25;;
40052;SDS011;25758;48.200;16.338;2024-03-08T12:08:01;20.45;;;10.52;;
40052;SDS011;25758;48.200;16.338;2024-03-08T12:10:28;20.67;;;10.50;;
40052;SDS011;25758;48.200;16.338;2024-03-08T12:12:54;18.08;;;9.23;;
40052;SDS011;25758;48.200;16.338;2024-03-08T12:15:24;18.75;;;10.02;;
40052;SDS011;25758;48.200;16.338;2024-03-08T12:17:51;18.95;;;9.52;;
40052;SDS011;25758;48.200;16.338;2024-03-08T12:20:19;17.58;;;9.32;;
40052;SDS011;25758;48.200;16.338;2024-03-08T12:22:47;21.52;;;10.18;;
40052;SDS011;25758;48.200;16.338;2024-03-08T12:25:13;23.67;;;10.68;;
40052;SDS011;25758;48.200;16.338;2024-03-08T12:27:40;19.88;;;10.40;;
40052;SDS011;25758;48.200;16.338;2024-03-08T12:30:19;24.67;;;11.35;;
40052;SDS011;25758;48.200;16.338;2024-03-08T12:32:47;20.05;;;10.20;;
40052;SDS011;25758;48.200;16.338;2024-03-08T12:35:19;23.92;;;11.90;;
40052;SDS011;25758;48.200;16.338;2024-03-08T12:37:47;21.08;;;11.07;;
40052;SDS011;25758;48.200;16.338;2024-03-08T12:40:17;21.08;;;11.50;;
40052;SDS011;25758;48.200;16.338;2024-03-08T12:42:44;19.48;;;10.45;;
40052;SDS011;25758;48.200;16.338;2024-03-08T12:45:12;25.42;;;11.95;;
40052;SDS011;25758;48.200;16.338;2024-03-08T12:47:39;24.35;;;11.40;;
40052;SDS011;25758;48.200;16.338;2024-03-08T12:50:07;23.42;;;12.25;;
40052;SDS011;25758;48.200;16.338;2024-03-08T12:52:34;19.45;;;10.70;;
40052;SDS011;25758;48.200;16.338;2024-03-08T12:54:59;18.42;;;10.18;;
40052;SDS011;25758;48.200;16.338;2024-03-08T12:57:28;20.33;;;11.27;;
40052;SDS011;25758;48.200;16.338;2024-03-08T12:59:54;26.58;;;11.68;;
40052;SDS011;25758;48.200;16.338;2024-03-08T13:02:19;17.23;;;9.40;;
40052;SDS011;25758;48.200;16.338;2024-03-08T13:04:46;18.77;;;9.43;;
40052;SDS011;25758;48.200;16.338;2024-03-08T13:07:20;17.02;;;9.68;;
40052;SDS011;25758;48.200;16.338;2024-03-08T13:09:46;17.85;;;9.52;;
40052;SDS011;25758;48.200;16.338;2024-03-08T13:12:12;16.48;;;9.80;;
40052;SDS011;25758;48.200;16.338;2024-03-08T13:14:40;17.58;;;8.82;;
40052;SDS011;25758;48.200;16.338;2024-03-08T13:17:06;20.05;;;10.02;;
40052;SDS011;25758;48.200;16.338;2024-03-08T13:19:35;16.52;;;8.68;;
40052;SDS011;25758;48.200;16.338;2024-03-08T13:22:03;20.20;;;9.63;;
40052;SDS011;25758;48.200;16.338;2024-03-08T13:24:32;18.73;;;9.13;;
40052;SDS011;25758;48.200;16.338;2024-03-08T13:26:59;17.02;;;8.95;;
40052;SDS011;25758;48.200;16.338;2024-03-08T13:29:25;20.98;;;8.35;;
40052;SDS011;25758;48.200;16.338;2024-03-08T13:31:51;15.88;;;8.60;;
40052;SDS011;25758;48.200;16.338;2024-03-08T13:34:18;17.02;;;8.32;;
40052;SDS011;25758;48.200;16.338;2024-03-08T13:36:44;15.50;;;8.15;;
40052;SDS011;25758;48.200;16.338;2024-03-08T13:39:11;15.90;;;8.65;;
40052;SDS011;25758;48.200;16.338;2024-03-08T13:41:46;14.80;;;8.18;;
40052;SDS011;25758;48.200;16.338;2024-03-08T13:44:11;15.45;;;8.63;;
40052;SDS011;25758;48.200;16.338;2024-03-08T13:46:37;13.18;;;7.85;;
40052;SDS011;25758;48.200;16.338;2024-03-08T13:49:03;83.40;;;37.50;;
40052;SDS011;25758;48.200;16.338;2024-03-08T13:51:31;14.98;;;8.98;;
40052;SDS011;25758;48.200;16.338;2024-03-08T13:53:57;19.98;;;10.05;;
40052;SDS011;25758;48.200;16.338;2024-03-08T13:56:23;14.10;;;9.18;;
40052;SDS011;25758;48.200;16.338;2024-03-08T13:58:48;16.58;;;9.60;;
40052;SDS011;25758;48.200;16.338;2024-03-08T14:01:14;16.35;;;9.05;;
40052;SDS011;25758;48.200;16.338;2024-03-08T14:03:40;18.17;;;9.77;;
40052;SDS011;25758;48.200;16.338;2024-03-08T14:06:06;15.95;;;9.35;;
40052;SDS011;25758;48.200;16.338;2024-03-08T14:08:32;16.13;;;9.45;;
40052;SDS011;25758;48.200;16.338;2024-03-08T14:10:58;18.33;;;9.38;;
40052;SDS011;25758;48.200;16.338;2024-03-08T14:13:23;14.43;;;8.02;;
40052;SDS011;25758;48.200;16.338;2024-03-08T14:15:50;17.98;;;9.10;;
40052;SDS011;25758;48.200;16.338;2024-03-08T14:18:17;17.13;;;9.02;;
40052;SDS011;25758;48.200;16.338;2024-03-08T14:20:43;20.05;;;10.45;;
40052;SDS011;25758;48.200;16.338;2024-03-08T14:23:09;18.38;;;9.60;;
40052;SDS011;25758;48.200;16.338;2024-03-08T14:25:35;22.17;;;9.70;;
40052;SDS011;25758;48.200;16.338;2024-03-08T14:28:01;19.50;;;10.68;;
40052;SDS011;25758;48.200;16.338;2024-03-08T14:30:31;20.95;;;9.30;;
40052;SDS011;25758;48.200;16.338;2024-03-08T14:32:59;19.77;;;10.13;;
40052;SDS011;25758;48.200;16.338;2024-03-08T14:35:25;27.33;;;10.60;;
40052;SDS011;25758;48.200;16.338;2024-03-08T14:37:52;19.25;;;10.95;;
40052;SDS011;25758;48.200;16.338;2024-03-08T14:40:18;22.13;;;11.48;;
40052;SDS011;25758;48.200;16.338;2024-03-08T14:42:47;20.33;;;11.27;;
40052;SDS011;25758;48.200;16.338;2024-03-08T14:45:14;21.75;;;9.82;;
40052;SDS011;25758;48.200;16.338;2024-03-08T14:47:49;18.98;;;9.90;;
40052;SDS011;25758;48.200;16.338;2024-03-08T14:50:19;18.55;;;10.55;;
40052;SDS011;25758;48.200;16.338;2024-03-08T14:52:45;20.38;;;11.25;;
40052;SDS011;25758;48.200;16.338;2024-03-08T14:55:17;21.77;;;10.27;;
40052;SDS011;25758;48.200;16.338;2024-03-08T14:57:45;17.17;;;9.70;;
40052;SDS011;25758;48.200;16.338;2024-03-08T15:00:11;20.33;;;10.52;;
40052;SDS011;25758;48.200;16.338;2024-03-08T15:02:52;17.00;;;10.25;;
40052;SDS011;25758;48.200;16.338;2024-03-08T15:05:19;17.25;;;9.55;;
40052;SDS011;25758;48.200;16.338;2024-03-08T15:07:46;18.38;;;10.65;;
40052;SDS011;25758;48.200;16.338;2024-03-08T15:10:12;17.17;;;10.02;;
40052;SDS011;25758;48.200;16.338;2024-03-08T15:12:43;15.77;;;9.80;;
40052;SDS011;25758;48.200;16.338;2024-03-08T15:15:12;23.08;;;10.20;;
40052;SDS011;25758;48.200;16.338;2024-03-08T15:17:39;21.20;;;10.65;;
40052;SDS011;25758;48.200;16.338;2024-03-08T15:20:05;21.60;;;10.68;;
40052;SDS011;25758;48.200;16.338;2024-03-08T15:22:46;22.10;;;11.88;;
40052;SDS011;25758;48.200;16.338;2024-03-08T15:28:00;20.25;;;10.13;;
40052;SDS011;25758;48.200;16.338;2024-03-08T15:30:29;19.98;;;10.25;;
40052;SDS011;25758;48.200;16.338;2024-03-08T15:32:56;21.35;;;11.43;;
40052;SDS011;25758;48.200;16.338;2024-03-08T15:35:24;20.63;;;10.85;;
40052;SDS011;25758;48.200;16.338;2024-03-08T15:37:50;18.35;;;9.55;;
40052;SDS011;25758;48.200;16.338;2024-03-08T15:40:17;19.27;;;11.63;;
40052;SDS011;25758;48.200;16.338;2024-03-08T15:42:55;18.23;;;10.07;;
40052;SDS011;25758;48.200;16.338;2024-03-08T15:45:24;21.88;;;12.27;;
40052;SDS011;25758;48.200;16.338;2024-03-08T15:47:53;19.25;;;10.27;;
40052;SDS011;25758;48.200;16.338;2024-03-08T15:50:19;18.75;;;9.77;;
40052;SDS011;25758;48.200;16.338;2024-03-08T15:52:48;17.83;;;9.80;;
40052;SDS011;25758;48.200;16.338;2024-03-08T15:55:15;17.85;;;9.70;;